sensor_id;sensor_type;location;lat;lon;timestamp;temperature;humidity
13798;DHT22;6970;51.340;3.240;2022-09-28T01:29:46;10.40;99.90
13798;DHT22;6970;51.340;3.240;2022-09-28T01:35:08;10.40;99.90
13798;DHT22;6970;51.340;3.240;2022-09-28T01:37:48;10.40;99.90
13798;DHT22;6970;51.340;3.240;2022-09-28T01:40:22;10.40;99.90
13798;DHT22;6970;51.340;3.240;2022-09-28T01:42:59;10.40;99.90
13798;DHT22;6970;51.340;3.240;2022-09-28T01:45:43;10.40;99.90
13798;DHT22;6970;51.340;3.240;2022-09-28T01:48:16;10.40;99.90
13798;DHT22;6970;51.340;3.240;2022-09-28T01:50:47;10.40;99.90
13798;DHT22;6970;51.340;3.240;2022-09-28T01:53:22;10.40;99.90
13798;DHT22;6970;51.340;3.240;2022-09-28T01:55:55;10.50;99.90
13798;DHT22;6970;51.340;3.240;2022-09-28T01:58:52;10.50;99.90
13798;DHT22;6970;51.340;3.240;2022-09-28T02:01:45;10.50;99.90
13798;DHT22;6970;51.340;3.240;2022-09-28T02:04:23;10.40;99.90
13798;DHT22;6970;51.340;3.240;2022-09-28T02:07:00;10.40;99.90
13798;DHT22;6970;51.340;3.240;2022-09-28T02:09:42;10.30;99.90
13798;DHT22;6970;51.340;3.240;2022-09-28T02:12:34;10.30;99.90
13798;DHT22;6970;51.340;3.240;2022-09-28T02:15:13;10.30;99.90
13798;DHT22;6970;51.340;3.240;2022-09-28T02:17:45;10.30;99.90
13798;DHT22;6970;51.340;3.240;2022-09-28T02:20:14;10.20;99.90
13798;DHT22;6970;51.340;3.240;2022-09-28T02:22:50;10.20;99.90
13798;DHT22;6970;51.340;3.240;2022-09-28T02:27:55;10.10;99.90
13798;DHT22;6970;51.340;3.240;2022-09-28T02:30:31;10.10;99.90
13798;DHT22;6970;51.340;3.240;2022-09-28T02:35:50;10.00;99.90
13798;DHT22;6970;51.340;3.240;2022-09-28T02:38:17;10.00;99.90
13798;DHT22;6970;51.340;3.240;2022-09-28T02:40:55;10.00;99.90
13798;DHT22;6970;51.340;3.240;2022-09-28T02:46:02;10.00;99.90
13798;DHT22;6970;51.340;3.240;2022-09-28T02:56:40;10.00;99.90
13798;DHT22;6970;51.340;3.240;2022-09-28T03:02:30;10.00;99.90
13798;DHT22;6970;51.340;3.240;2022-09-28T03:07:56;10.00;99.90
13798;DHT22;6970;51.340;3.240;2022-09-28T03:10:29;10.00;99.90
13798;DHT22;6970;51.340;3.240;2022-09-28T03:12:59;10.00;99.90
13798;DHT22;6970;51.340;3.240;2022-09-28T03:15:30;10.00;99.90
13798;DHT22;6970;51.340;3.240;2022-09-28T03:17:59;10.00;99.90
13798;DHT22;6970;51.340;3.240;2022-09-28T03:20:30;10.00;99.90
13798;DHT22;6970;51.340;3.240;2022-09-28T03:23:00;10.00;99.90
13798;DHT22;6970;51.340;3.240;2022-09-28T03:25:50;9.90;99.90
13798;DHT22;6970;51.340;3.240;2022-09-28T03:28:17;9.90;99.90
13798;DHT22;6970;51.340;3.240;2022-09-28T03:30:45;9.90;99.90
13798;DHT22;6970;51.340;3.240;2022-09-28T03:33:15;9.90;99.90
13798;DHT22;6970;51.340;3.240;2022-09-28T03:35:45;9.80;99.90
13798;DHT22;6970;51.340;3.240;2022-09-28T03:38:17;9.80;99.90
13798;DHT22;6970;51.340;3.240;2022-09-28T03:40:55;9.80;99.90
13798;DHT22;6970;51.340;3.240;2022-09-28T03:43:23;9.80;99.90
13798;DHT22;6970;51.340;3.240;2022-09-28T03:45:57;9.70;99.90
13798;DHT22;6970;51.340;3.240;2022-09-28T03:48:27;9.70;99.90
13798;DHT22;6970;51.340;3.240;2022-09-28T03:51:04;9.70;99.90
13798;DHT22;6970;51.340;3.240;2022-09-28T03:53:35;9.70;99.90
13798;DHT22;6970;51.340;3.240;2022-09-28T03:56:11;9.70;99.90
13798;DHT22;6970;51.340;3.240;2022-09-28T03:58:39;9.70;99.90
13798;DHT22;6970;51.340;3.240;2022-09-28T04:01:09;9.70;99.90
13798;DHT22;6970;51.340;3.240;2022-09-28T04:03:45;9.70;99.90
13798;DHT22;6970;51.340;3.240;2022-09-28T04:06:15;9.70;99.90
13798;DHT22;6970;51.340;3.240;2022-09-28T04:08:43;9.70;99.90
13798;DHT22;6970;51.340;3.240;2022-09-28T04:11:10;9.70;99.90
13798;DHT22;6970;51.340;3.240;2022-09-28T04:13:37;9.70;99.90
13798;DHT22;6970;51.340;3.240;2022-09-28T04:16:04;9.70;99.90
13798;DHT22;6970;51.340;3.240;2022-09-28T04:18:32;9.70;99.90
13798;DHT22;6970;51.340;3.240;2022-09-28T04:21:06;9.70;99.90
13798;DHT22;6970;51.340;3.240;2022-09-28T04:23:38;9.70;99.90
13798;DHT22;6970;51.340;3.240;2022-09-28T04:26:18;9.70;99.90
13798;DHT22;6970;51.340;3.240;2022-09-28T04:28:46;9.80;99.90
13798;DHT22;6970;51.340;3.240;2022-09-28T04:31:51;9.80;99.90
13798;DHT22;6970;51.340;3.240;2022-09-28T04:34:21;9.90;99.90
13798;DHT22;6970;51.340;3.240;2022-09-28T04:36:51;9.90;99.90
13798;DHT22;6970;51.340;3.240;2022-09-28T04:39:21;10.00;99.90
13798;DHT22;6970;51.340;3.240;2022-09-28T04:41:48;10.00;99.90
13798;DHT22;6970;51.340;3.240;2022-09-28T04:44:16;10.00;99.90
13798;DHT22;6970;51.340;3.240;2022-09-28T04:46:46;10.00;99.90
13798;DHT22;6970;51.340;3.240;2022-09-28T04:49:14;10.00;99.90
13798;DHT22;6970;51.340;3.240;2022-09-28T04:51:44;9.90;99.90
13798;DHT22;6970;51.340;3.240;2022-09-28T04:54:12;10.00;99.90
13798;DHT22;6970;51.340;3.240;2022-09-28T04:56:42;10.00;99.90
13798;DHT22;6970;51.340;3.240;2022-09-28T04:59:10;9.90;99.90
13798;DHT22;6970;51.340;3.240;2022-09-28T05:01:41;9.90;99.90
13798;DHT22;6970;51.340;3.240;2022-09-28T05:04:11;9.90;99.90
13798;DHT22;6970;51.340;3.240;2022-09-28T05:06:39;9.90;99.90
13798;DHT22;6970;51.340;3.240;2022-09-28T05:09:06;9.80;99.90
13798;DHT22;6970;51.340;3.240;2022-09-28T05:11:35;9.80;99.90
13798;DHT22;6970;51.340;3.240;2022-09-28T05:14:03;9.80;99.90
13798;DHT22;6970;51.340;3.240;2022-09-28T05:16:32;9.80;99.90
13798;DHT22;6970;51.340;3.240;2022-09-28T05:19:00;9.70;99.90
13798;DHT22;6970;51.340;3.240;2022-09-28T05:21:30;9.70;99.90
13798;DHT22;6970;51.340;3.240;2022-09-28T05:24:01;9.70;99.90
13798;DHT22;6970;51.340;3.240;2022-09-28T05:26:36;9.70;99.90
13798;DHT22;6970;51.340;3.240;2022-09-28T05:29:03;9.70;99.90
13798;DHT22;6970;51.340;3.240;2022-09-28T05:31:30;9.70;99.90
13798;DHT22;6970;51.340;3.240;2022-09-28T05:34:01;9.70;99.90
13798;DHT22;6970;51.340;3.240;2022-09-28T05:36:28;9.60;99.90
13798;DHT22;6970;51.340;3.240;2022-09-28T05:38:58;9.60;99.90
13798;DHT22;6970;51.340;3.240;2022-09-28T05:41:25;9.60;99.90
13798;DHT22;6970;51.340;3.240;2022-09-28T05:43:55;9.60;99.90
13798;DHT22;6970;51.340;3.240;2022-09-28T05:46:24;9.60;99.90
13798;DHT22;6970;51.340;3.240;2022-09-28T05:48:54;9.70;99.90
13798;DHT22;6970;51.340;3.240;2022-09-28T05:51:21;9.70;99.90
13798;DHT22;6970;51.340;3.240;2022-09-28T05:53:53;9.70;99.90
13798;DHT22;6970;51.340;3.240;2022-09-28T05:56:23;9.80;99.90
13798;DHT22;6970;51.340;3.240;2022-09-28T05:58:53;9.90;99.90
13798;DHT22;6970;51.340;3.240;2022-09-28T06:01:22;10.00;99.90
13798;DHT22;6970;51.340;3.240;2022-09-28T06:03:51;10.00;99.90
13798;DHT22;6970;51.340;3.240;2022-09-28T06:06:21;10.10;99.90
13798;DHT22;6970;51.340;3.240;2022-09-28T06:08:52;10.20;99.90
13798;DHT22;6970;51.340;3.240;2022-09-28T06:11:22;10.30;99.90
13798;DHT22;6970;51.340;3.240;2022-09-28T06:13:54;10.40;99.90
13798;DHT22;6970;51.340;3.240;2022-09-28T06:16:24;10.60;99.90
13798;DHT22;6970;51.340;3.240;2022-09-28T06:18:51;10.70;99.90
13798;DHT22;6970;51.340;3.240;2022-09-28T06:21:21;10.90;99.90
13798;DHT22;6970;51.340;3.240;2022-09-28T06:23:49;11.00;99.90
13798;DHT22;6970;51.340;3.240;2022-09-28T06:26:17;11.50;99.90
13798;DHT22;6970;51.340;3.240;2022-09-28T06:28:45;12.10;99.90
13798;DHT22;6970;51.340;3.240;2022-09-28T06:31:13;12.60;99.90
13798;DHT22;6970;51.340;3.240;2022-09-28T06:33:42;12.70;99.90
13798;DHT22;6970;51.340;3.240;2022-09-28T06:36:11;12.70;99.90
13798;DHT22;6970;51.340;3.240;2022-09-28T06:38:42;12.50;99.90
13798;DHT22;6970;51.340;3.240;2022-09-28T06:41:10;12.50;99.90
13798;DHT22;6970;51.340;3.240;2022-09-28T06:43:37;12.60;99.90
13798;DHT22;6970;51.340;3.240;2022-09-28T06:46:08;13.30;99.90
13798;DHT22;6970;51.340;3.240;2022-09-28T06:48:36;13.70;99.90
13798;DHT22;6970;51.340;3.240;2022-09-28T06:51:03;13.70;99.90
13798;DHT22;6970;51.340;3.240;2022-09-28T06:53:30;13.40;99.90
13798;DHT22;6970;51.340;3.240;2022-09-28T06:56:04;13.30;99.90
13798;DHT22;6970;51.340;3.240;2022-09-28T06:58:32;13.10;99.90
13798;DHT22;6970;51.340;3.240;2022-09-28T07:00:59;12.90;99.90
13798;DHT22;6970;51.340;3.240;2022-09-28T07:03:27;12.80;99.90
13798;DHT22;6970;51.340;3.240;2022-09-28T07:05:54;12.70;99.90
13798;DHT22;6970;51.340;3.240;2022-09-28T07:08:23;12.60;99.90
13798;DHT22;6970;51.340;3.240;2022-09-28T07:10:53;12.60;99.90
13798;DHT22;6970;51.340;3.240;2022-09-28T07:13:26;12.50;99.90
13798;DHT22;6970;51.340;3.240;2022-09-28T07:16:14;12.60;99.90
13798;DHT22;6970;51.340;3.240;2022-09-28T07:18:41;12.50;99.90
13798;DHT22;6970;51.340;3.240;2022-09-28T07:21:08;12.50;99.90
13798;DHT22;6970;51.340;3.240;2022-09-28T07:23:47;12.50;99.90
13798;DHT22;6970;51.340;3.240;2022-09-28T07:26:20;12.60;99.90
13798;DHT22;6970;51.340;3.240;2022-09-28T07:28:53;12.60;99.90
13798;DHT22;6970;51.340;3.240;2022-09-28T07:31:22;12.70;99.90
13798;DHT22;6970;51.340;3.240;2022-09-28T07:33:53;12.80;99.90
13798;DHT22;6970;51.340;3.240;2022-09-28T07:36:25;12.80;99.90
13798;DHT22;6970;51.340;3.240;2022-09-28T07:38:52;12.90;99.90
13798;DHT22;6970;51.340;3.240;2022-09-28T07:41:22;13.00;99.90
13798;DHT22;6970;51.340;3.240;2022-09-28T07:43:59;14.00;99.90
13798;DHT22;6970;51.340;3.240;2022-09-28T07:46:33;15.30;99.90
13798;DHT22;6970;51.340;3.240;2022-09-28T07:49:00;16.00;99.90
13798;DHT22;6970;51.340;3.240;2022-09-28T07:51:40;17.00;99.90
13798;DHT22;6970;51.340;3.240;2022-09-28T07:54:11;18.60;99.90
13798;DHT22;6970;51.340;3.240;2022-09-28T07:56:42;20.30;98.40
13798;DHT22;6970;51.340;3.240;2022-09-28T07:59:11;22.10;95.10
13798;DHT22;6970;51.340;3.240;2022-09-28T08:01:43;23.70;92.30
13798;DHT22;6970;51.340;3.240;2022-09-28T08:04:12;25.30;89.10
13798;DHT22;6970;51.340;3.240;2022-09-28T08:06:45;26.50;79.40
13798;DHT22;6970;51.340;3.240;2022-09-28T08:09:17;27.50;78.50
13798;DHT22;6970;51.340;3.240;2022-09-28T08:11:47;27.60;73.80
13798;DHT22;6970;51.340;3.240;2022-09-28T08:14:18;28.00;74.50
13798;DHT22;6970;51.340;3.240;2022-09-28T08:16:47;28.70;73.20
13798;DHT22;6970;51.340;3.240;2022-09-28T08:19:18;29.40;70.10
13798;DHT22;6970;51.340;3.240;2022-09-28T08:21:52;29.70;67.30
13798;DHT22;6970;51.340;3.240;2022-09-28T08:24:38;29.80;66.70
13798;DHT22;6970;51.340;3.240;2022-09-28T08:27:06;29.20;67.80
13798;DHT22;6970;51.340;3.240;2022-09-28T08:29:36;29.40;66.10
13798;DHT22;6970;51.340;3.240;2022-09-28T08:32:04;29.90;66.20
13798;DHT22;6970;51.340;3.240;2022-09-28T08:34:38;30.60;64.60
13798;DHT22;6970;51.340;3.240;2022-09-28T08:37:07;31.00;61.70
13798;DHT22;6970;51.340;3.240;2022-09-28T08:39:37;31.20;59.60
13798;DHT22;6970;51.340;3.240;2022-09-28T08:42:40;31.70;60.00
13798;DHT22;6970;51.340;3.240;2022-09-28T08:45:11;31.50;59.40
13798;DHT22;6970;51.340;3.240;2022-09-28T08:50:56;31.90;57.70
13798;DHT22;6970;51.340;3.240;2022-09-28T08:53:39;31.10;59.70
13798;DHT22;6970;51.340;3.240;2022-09-28T08:56:14;31.80;58.90
13798;DHT22;6970;51.340;3.240;2022-09-28T08:58:44;32.40;58.20
13798;DHT22;6970;51.340;3.240;2022-09-28T09:01:16;32.60;57.10
13798;DHT22;6970;51.340;3.240;2022-09-28T09:03:47;31.70;57.00
13798;DHT22;6970;51.340;3.240;2022-09-28T09:09:30;30.50;59.80
13798;DHT22;6970;51.340;3.240;2022-09-28T09:12:16;30.50;58.10
13798;DHT22;6970;51.340;3.240;2022-09-28T09:15:49;31.50;58.10
13798;DHT22;6970;51.340;3.240;2022-09-28T09:20:56;32.60;54.40
13798;DHT22;6970;51.340;3.240;2022-09-28T09:26:18;32.90;54.50
13798;DHT22;6970;51.340;3.240;2022-09-28T09:29:21;33.30;53.70
13798;DHT22;6970;51.340;3.240;2022-09-28T09:40:26;34.20;52.50
13798;DHT22;6970;51.340;3.240;2022-09-28T09:46:05;31.90;53.40
13798;DHT22;6970;51.340;3.240;2022-09-28T09:57:00;31.40;55.60
13798;DHT22;6970;51.340;3.240;2022-09-28T09:59:32;31.60;55.00
13798;DHT22;6970;51.340;3.240;2022-09-28T10:02:07;31.50;55.20
13798;DHT22;6970;51.340;3.240;2022-09-28T10:04:43;31.70;54.80
13798;DHT22;6970;51.340;3.240;2022-09-28T10:07:24;31.20;54.60
13798;DHT22;6970;51.340;3.240;2022-09-28T10:09:56;29.70;55.70
13798;DHT22;6970;51.340;3.240;2022-09-28T10:12:24;28.00;58.00
13798;DHT22;6970;51.340;3.240;2022-09-28T10:14:51;26.70;61.30
13798;DHT22;6970;51.340;3.240;2022-09-28T10:17:21;27.10;61.50
13798;DHT22;6970;51.340;3.240;2022-09-28T10:19:53;28.00;60.70
13798;DHT22;6970;51.340;3.240;2022-09-28T10:22:25;29.00;58.70
13798;DHT22;6970;51.340;3.240;2022-09-28T10:24:54;28.70;57.40
13798;DHT22;6970;51.340;3.240;2022-09-28T10:27:29;28.60;58.50
13798;DHT22;6970;51.340;3.240;2022-09-28T10:32:37;29.80;57.10
13798;DHT22;6970;51.340;3.240;2022-09-28T10:37:53;29.10;57.30
13798;DHT22;6970;51.340;3.240;2022-09-28T10:40:41;29.20;57.60
13798;DHT22;6970;51.340;3.240;2022-09-28T10:43:26;29.30;57.80
13798;DHT22;6970;51.340;3.240;2022-09-28T10:46:08;29.50;57.00
13798;DHT22;6970;51.340;3.240;2022-09-28T10:51:12;30.00;57.10
13798;DHT22;6970;51.340;3.240;2022-09-28T10:53:39;30.10;56.80
13798;DHT22;6970;51.340;3.240;2022-09-28T10:56:18;30.50;56.70
13798;DHT22;6970;51.340;3.240;2022-09-28T10:58:45;30.30;55.50
13798;DHT22;6970;51.340;3.240;2022-09-28T11:01:18;30.50;55.70
13798;DHT22;6970;51.340;3.240;2022-09-28T11:03:57;30.60;55.20
13798;DHT22;6970;51.340;3.240;2022-09-28T11:06:31;30.00;55.50
13798;DHT22;6970;51.340;3.240;2022-09-28T11:09:04;29.90;56.40
13798;DHT22;6970;51.340;3.240;2022-09-28T11:11:39;29.20;56.70
13798;DHT22;6970;51.340;3.240;2022-09-28T11:14:33;28.10;58.40
13798;DHT22;6970;51.340;3.240;2022-09-28T11:17:31;27.30;60.40
13798;DHT22;6970;51.340;3.240;2022-09-28T11:20:01;27.00;60.80
13798;DHT22;6970;51.340;3.240;2022-09-28T11:25:40;26.00;62.60
13798;DHT22;6970;51.340;3.240;2022-09-28T11:28:28;25.40;63.50
13798;DHT22;6970;51.340;3.240;2022-09-28T11:30:56;25.00;64.50
13798;DHT22;6970;51.340;3.240;2022-09-28T11:33:35;24.60;66.30
13798;DHT22;6970;51.340;3.240;2022-09-28T11:39:15;24.20;67.60
13798;DHT22;6970;51.340;3.240;2022-09-28T11:44:44;23.40;68.10
13798;DHT22;6970;51.340;3.240;2022-09-28T11:52:26;21.70;71.80
13798;DHT22;6970;51.340;3.240;2022-09-28T12:00:43;20.50;76.80
13798;DHT22;6970;51.340;3.240;2022-09-28T12:03:16;20.20;77.20
13798;DHT22;6970;51.340;3.240;2022-09-28T12:06:04;20.10;77.40
13798;DHT22;6970;51.340;3.240;2022-09-28T12:08:35;20.00;78.00
13798;DHT22;6970;51.340;3.240;2022-09-28T12:11:24;20.30;77.50
13798;DHT22;6970;51.340;3.240;2022-09-28T12:13:53;20.40;77.20
13798;DHT22;6970;51.340;3.240;2022-09-28T12:19:44;21.00;76.10
13798;DHT22;6970;51.340;3.240;2022-09-28T12:22:29;21.50;75.10
13798;DHT22;6970;51.340;3.240;2022-09-28T12:24:58;21.80;74.20
13798;DHT22;6970;51.340;3.240;2022-09-28T12:27:39;21.80;74.50
13798;DHT22;6970;51.340;3.240;2022-09-28T12:30:34;21.90;74.10
13798;DHT22;6970;51.340;3.240;2022-09-28T12:33:12;21.90;73.00
13798;DHT22;6970;51.340;3.240;2022-09-28T12:35:57;22.00;73.50
13798;DHT22;6970;51.340;3.240;2022-09-28T12:39:07;21.80;73.80
13798;DHT22;6970;51.340;3.240;2022-09-28T12:42:47;22.00;74.10
13798;DHT22;6970;51.340;3.240;2022-09-28T12:51:31;21.70;73.70
13798;DHT22;6970;51.340;3.240;2022-09-28T12:54:17;21.90;73.60
13798;DHT22;6970;51.340;3.240;2022-09-28T12:59:38;21.80;73.90
13798;DHT22;6970;51.340;3.240;2022-09-28T13:02:43;21.70;73.80
13798;DHT22;6970;51.340;3.240;2022-09-28T13:11:14;21.80;74.80
13798;DHT22;6970;51.340;3.240;2022-09-28T13:21:45;21.80;75.10
13798;DHT22;6970;51.340;3.240;2022-09-28T13:24:21;21.90;74.80
13798;DHT22;6970;51.340;3.240;2022-09-28T13:27:04;21.90;74.60
13798;DHT22;6970;51.340;3.240;2022-09-28T13:29:32;21.80;75.00
13798;DHT22;6970;51.340;3.240;2022-09-28T13:32:02;22.00;75.20
13798;DHT22;6970;51.340;3.240;2022-09-28T13:34:34;21.90;74.40
13798;DHT22;6970;51.340;3.240;2022-09-28T13:51:03;21.90;75.20
13798;DHT22;6970;51.340;3.240;2022-09-28T13:56:37;21.50;76.10
13798;DHT22;6970;51.340;3.240;2022-09-28T13:59:24;21.30;76.80
13798;DHT22;6970;51.340;3.240;2022-09-28T14:02:32;21.30;77.80
13798;DHT22;6970;51.340;3.240;2022-09-28T14:05:04;21.30;78.50
13798;DHT22;6970;51.340;3.240;2022-09-28T14:10:22;21.20;77.70
13798;DHT22;6970;51.340;3.240;2022-09-28T14:12:52;21.30;77.80
13798;DHT22;6970;51.340;3.240;2022-09-28T14:31:48;21.10;77.80
13798;DHT22;6970;51.340;3.240;2022-09-28T14:34:53;21.10;78.30
13798;DHT22;6970;51.340;3.240;2022-09-28T14:37:35;21.00;78.90
13798;DHT22;6970;51.340;3.240;2022-09-28T14:40:27;21.10;77.80
13798;DHT22;6970;51.340;3.240;2022-09-28T14:43:36;20.90;77.30
13798;DHT22;6970;51.340;3.240;2022-09-28T14:46:31;20.90;77.60
13798;DHT22;6970;51.340;3.240;2022-09-28T14:54:13;20.60;77.80
13798;DHT22;6970;51.340;3.240;2022-09-28T14:56:45;20.50;78.50
13798;DHT22;6970;51.340;3.240;2022-09-28T15:04:43;19.90;85.40
13798;DHT22;6970;51.340;3.240;2022-09-28T15:07:23;19.80;86.50
13798;DHT22;6970;51.340;3.240;2022-09-28T15:09:52;19.50;87.90
13798;DHT22;6970;51.340;3.240;2022-09-28T15:12:24;19.30;89.10
13798;DHT22;6970;51.340;3.240;2022-09-28T15:15:00;19.00;89.40
13798;DHT22;6970;51.340;3.240;2022-09-28T15:17:31;18.60;89.90
13798;DHT22;6970;51.340;3.240;2022-09-28T15:20:24;18.30;90.20
13798;DHT22;6970;51.340;3.240;2022-09-28T15:22:53;18.00;90.50
13798;DHT22;6970;51.340;3.240;2022-09-28T15:25:29;17.70;90.80
13798;DHT22;6970;51.340;3.240;2022-09-28T15:28:00;17.40;91.00
13798;DHT22;6970;51.340;3.240;2022-09-28T15:30:34;17.20;91.50
13798;DHT22;6970;51.340;3.240;2022-09-28T15:33:03;17.00;92.30
13798;DHT22;6970;51.340;3.240;2022-09-28T15:35:58;16.80;93.10
13798;DHT22;6970;51.340;3.240;2022-09-28T15:38:28;16.70;93.40
13798;DHT22;6970;51.340;3.240;2022-09-28T15:40:55;16.60;93.90
13798;DHT22;6970;51.340;3.240;2022-09-28T15:43:26;16.50;93.90
13798;DHT22;6970;51.340;3.240;2022-09-28T15:46:18;16.50;94.00
13798;DHT22;6970;51.340;3.240;2022-09-28T15:48:52;16.40;94.10
13798;DHT22;6970;51.340;3.240;2022-09-28T15:51:22;16.30;94.50
13798;DHT22;6970;51.340;3.240;2022-09-28T15:56:29;16.10;95.20
13798;DHT22;6970;51.340;3.240;2022-09-28T16:01:42;16.10;95.80
13798;DHT22;6970;51.340;3.240;2022-09-28T16:04:42;16.00;95.80
13798;DHT22;6970;51.340;3.240;2022-09-28T16:12:52;15.80;95.40
13798;DHT22;6970;51.340;3.240;2022-09-28T16:15:33;15.50;95.50
13798;DHT22;6970;51.340;3.240;2022-09-28T16:20:52;15.10;95.40
13798;DHT22;6970;51.340;3.240;2022-09-28T16:26:00;14.90;96.00
13798;DHT22;6970;51.340;3.240;2022-09-28T16:31:19;14.70;96.80
13798;DHT22;6970;51.340;3.240;2022-09-28T16:33:55;14.60;97.30
13798;DHT22;6970;51.340;3.240;2022-09-28T16:36:26;14.50;97.70
13798;DHT22;6970;51.340;3.240;2022-09-28T16:38:55;14.30;97.80
13798;DHT22;6970;51.340;3.240;2022-09-28T16:41:25;14.40;98.10
13798;DHT22;6970;51.340;3.240;2022-09-28T16:43:56;14.50;98.10
13798;DHT22;6970;51.340;3.240;2022-09-28T16:46:30;14.50;98.10
13798;DHT22;6970;51.340;3.240;2022-09-28T16:48:58;14.60;98.10
13798;DHT22;6970;51.340;3.240;2022-09-28T16:51:25;14.70;98.30
13798;DHT22;6970;51.340;3.240;2022-09-28T16:53:52;14.80;98.10
13798;DHT22;6970;51.340;3.240;2022-09-28T16:56:37;14.90;98.30
13798;DHT22;6970;51.340;3.240;2022-09-28T16:59:04;14.90;98.30
13798;DHT22;6970;51.340;3.240;2022-09-28T17:01:31;15.00;98.20
13798;DHT22;6970;51.340;3.240;2022-09-28T17:03:58;15.00;98.30
13798;DHT22;6970;51.340;3.240;2022-09-28T17:06:26;15.00;98.40
13798;DHT22;6970;51.340;3.240;2022-09-28T17:08:53;14.90;98.60
13798;DHT22;6970;51.340;3.240;2022-09-28T17:11:24;14.90;98.60
13798;DHT22;6970;51.340;3.240;2022-09-28T17:13:51;14.90;98.70
13798;DHT22;6970;51.340;3.240;2022-09-28T17:16:24;14.90;98.80
13798;DHT22;6970;51.340;3.240;2022-09-28T17:19:18;14.80;98.80
13798;DHT22;6970;51.340;3.240;2022-09-28T17:21:46;14.90;98.80
13798;DHT22;6970;51.340;3.240;2022-09-28T17:24:13;14.90;98.80
13798;DHT22;6970;51.340;3.240;2022-09-28T17:26:40;14.90;98.70
13798;DHT22;6970;51.340;3.240;2022-09-28T17:29:12;15.00;98.90
13798;DHT22;6970;51.340;3.240;2022-09-28T17:31:44;15.00;98.90
13798;DHT22;6970;51.340;3.240;2022-09-28T17:34:13;15.00;98.90
13798;DHT22;6970;51.340;3.240;2022-09-28T17:36:42;15.00;99.00
13798;DHT22;6970;51.340;3.240;2022-09-28T17:39:15;15.00;98.90
13798;DHT22;6970;51.340;3.240;2022-09-28T17:41:43;15.00;98.90
13798;DHT22;6970;51.340;3.240;2022-09-28T17:44:10;14.90;98.90
13798;DHT22;6970;51.340;3.240;2022-09-28T17:46:43;14.80;98.90
13798;DHT22;6970;51.340;3.240;2022-09-28T17:49:12;14.80;99.00
13798;DHT22;6970;51.340;3.240;2022-09-28T17:51:39;14.80;99.10
13798;DHT22;6970;51.340;3.240;2022-09-28T17:54:06;14.80;99.00
13798;DHT22;6970;51.340;3.240;2022-09-28T17:56:35;14.70;99.00
13798;DHT22;6970;51.340;3.240;2022-09-28T17:59:09;14.70;99.00
13798;DHT22;6970;51.340;3.240;2022-09-28T18:01:38;14.70;98.90
13798;DHT22;6970;51.340;3.240;2022-09-28T18:04:06;14.70;98.80
13798;DHT22;6970;51.340;3.240;2022-09-28T18:06:35;14.70;98.80
13798;DHT22;6970;51.340;3.240;2022-09-28T18:09:03;14.60;99.30
13798;DHT22;6970;51.340;3.240;2022-09-28T18:11:31;14.40;99.40
13798;DHT22;6970;51.340;3.240;2022-09-28T18:13:59;14.30;99.50
13798;DHT22;6970;51.340;3.240;2022-09-28T18:16:27;14.20;99.60
13798;DHT22;6970;51.340;3.240;2022-09-28T18:18:54;14.10;99.90
13798;DHT22;6970;51.340;3.240;2022-09-28T18:21:21;14.10;99.90
13798;DHT22;6970;51.340;3.240;2022-09-28T18:23:48;14.00;99.90
13798;DHT22;6970;51.340;3.240;2022-09-28T18:26:16;14.00;99.90
13798;DHT22;6970;51.340;3.240;2022-09-28T18:28:45;14.00;99.90
13798;DHT22;6970;51.340;3.240;2022-09-28T18:31:14;14.00;99.90
13798;DHT22;6970;51.340;3.240;2022-09-28T18:33:41;13.90;99.90
13798;DHT22;6970;51.340;3.240;2022-09-28T18:36:09;13.90;99.90
13798;DHT22;6970;51.340;3.240;2022-09-28T18:38:36;13.80;99.90
13798;DHT22;6970;51.340;3.240;2022-09-28T18:41:12;13.70;99.90
13798;DHT22;6970;51.340;3.240;2022-09-28T18:43:47;13.60;99.90
13798;DHT22;6970;51.340;3.240;2022-09-28T18:46:15;13.50;99.90
13798;DHT22;6970;51.340;3.240;2022-09-28T18:48:46;13.50;99.90
13798;DHT22;6970;51.340;3.240;2022-09-28T18:51:13;13.40;99.90
13798;DHT22;6970;51.340;3.240;2022-09-28T18:53:41;13.40;99.90
13798;DHT22;6970;51.340;3.240;2022-09-28T18:56:10;13.40;99.90
13798;DHT22;6970;51.340;3.240;2022-09-28T18:58:40;13.40;99.90
13798;DHT22;6970;51.340;3.240;2022-09-28T19:01:15;13.40;99.90
13798;DHT22;6970;51.340;3.240;2022-09-28T19:03:59;13.40;99.90
13798;DHT22;6970;51.340;3.240;2022-09-28T19:06:27;13.30;99.90
13798;DHT22;6970;51.340;3.240;2022-09-28T19:08:55;13.20;99.90
13798;DHT22;6970;51.340;3.240;2022-09-28T19:11:23;13.20;99.90
13798;DHT22;6970;51.340;3.240;2022-09-28T19:13:52;13.20;99.90
13798;DHT22;6970;51.340;3.240;2022-09-28T19:16:25;13.10;99.90
13798;DHT22;6970;51.340;3.240;2022-09-28T19:18:55;13.00;99.90
13798;DHT22;6970;51.340;3.240;2022-09-28T19:21:22;12.90;99.90
13798;DHT22;6970;51.340;3.240;2022-09-28T19:23:49;12.80;99.90
13798;DHT22;6970;51.340;3.240;2022-09-28T19:26:17;12.70;99.90
13798;DHT22;6970;51.340;3.240;2022-09-28T19:28:44;12.60;99.90
13798;DHT22;6970;51.340;3.240;2022-09-28T19:31:12;12.40;99.90
13798;DHT22;6970;51.340;3.240;2022-09-28T19:33:39;12.40;99.90
13798;DHT22;6970;51.340;3.240;2022-09-28T19:36:21;12.30;99.90
13798;DHT22;6970;51.340;3.240;2022-09-28T19:38:50;12.20;99.90
13798;DHT22;6970;51.340;3.240;2022-09-28T19:41:21;12.20;99.90
13798;DHT22;6970;51.340;3.240;2022-09-28T19:46:42;12.10;99.90
13798;DHT22;6970;51.340;3.240;2022-09-28T19:49:12;12.10;99.90
13798;DHT22;6970;51.340;3.240;2022-09-28T19:51:40;12.10;99.90
13798;DHT22;6970;51.340;3.240;2022-09-28T19:54:27;12.10;99.90
13798;DHT22;6970;51.340;3.240;2022-09-28T19:57:02;12.10;99.90
13798;DHT22;6970;51.340;3.240;2022-09-28T19:59:34;12.10;99.90
13798;DHT22;6970;51.340;3.240;2022-09-28T20:02:04;12.20;99.90
13798;DHT22;6970;51.340;3.240;2022-09-28T20:04:31;12.20;99.90
13798;DHT22;6970;51.340;3.240;2022-09-28T20:06:58;12.20;99.90
13798;DHT22;6970;51.340;3.240;2022-09-28T20:09:25;12.10;99.90
13798;DHT22;6970;51.340;3.240;2022-09-28T20:11:51;12.10;99.90
13798;DHT22;6970;51.340;3.240;2022-09-28T20:14:18;12.10;99.90
13798;DHT22;6970;51.340;3.240;2022-09-28T20:16:50;12.20;99.90
13798;DHT22;6970;51.340;3.240;2022-09-28T20:19:17;12.20;99.90
13798;DHT22;6970;51.340;3.240;2022-09-28T20:21:47;12.30;99.90
13798;DHT22;6970;51.340;3.240;2022-09-28T20:24:14;12.30;99.90
13798;DHT22;6970;51.340;3.240;2022-09-28T20:26:43;12.30;99.90
13798;DHT22;6970;51.340;3.240;2022-09-28T20:29:12;12.40;99.90
13798;DHT22;6970;51.340;3.240;2022-09-28T20:31:39;12.40;99.90
13798;DHT22;6970;51.340;3.240;2022-09-28T20:34:06;12.50;99.90
13798;DHT22;6970;51.340;3.240;2022-09-28T20:36:33;12.50;99.90
13798;DHT22;6970;51.340;3.240;2022-09-28T20:39:01;12.60;99.90
13798;DHT22;6970;51.340;3.240;2022-09-28T20:41:30;12.60;99.90
13798;DHT22;6970;51.340;3.240;2022-09-28T20:44:04;12.60;99.90
13798;DHT22;6970;51.340;3.240;2022-09-28T20:46:35;12.60;99.90
13798;DHT22;6970;51.340;3.240;2022-09-28T20:49:03;12.60;99.90
13798;DHT22;6970;51.340;3.240;2022-09-28T20:51:31;12.50;99.90
13798;DHT22;6970;51.340;3.240;2022-09-28T20:53:58;12.50;99.90